createdAt,value
2023-05-28T00:02:29.149Z,7.77
2023-05-28T00:05:09.642Z,7.77
2023-05-28T00:10:34.084Z,8.23
2023-05-28T00:13:05.066Z,8.07
2023-05-28T00:15:46.493Z,7.63
2023-05-28T00:20:43.359Z,8.10
2023-05-28T00:23:11.044Z,8.70
2023-05-28T00:25:38.350Z,8.60
2023-05-28T00:28:06.040Z,9.88
2023-05-28T00:30:33.353Z,9.55
2023-05-28T00:33:01.119Z,10.00
2023-05-28T00:35:28.261Z,9.60
2023-05-28T00:37:55.348Z,9.32
2023-05-28T00:40:23.093Z,9.53
2023-05-28T00:42:52.306Z,8.43
2023-05-28T00:45:19.578Z,8.80
2023-05-28T00:47:48.710Z,8.50
2023-05-28T00:50:18.301Z,8.27
2023-05-28T00:52:48.498Z,8.50
2023-05-28T00:55:17.380Z,7.97
2023-05-28T00:57:48.393Z,8.90
2023-05-28T01:00:19.088Z,8.57
2023-05-28T01:02:46.393Z,8.03
2023-05-28T01:05:15.545Z,8.73
2023-05-28T01:07:42.998Z,8.27
2023-05-28T01:10:10.916Z,8.47
2023-05-28T01:12:40.338Z,8.90
2023-05-28T01:15:08.768Z,8.57
2023-05-28T01:17:39.366Z,8.73
2023-05-28T01:20:12.501Z,9.95
2023-05-28T01:22:42.142Z,9.07
2023-05-28T01:25:12.235Z,8.70
2023-05-28T01:27:41.206Z,8.60
2023-05-28T01:30:13.877Z,8.93
2023-05-28T01:32:40.988Z,10.00
2023-05-28T01:35:11.144Z,10.23
2023-05-28T01:37:48.541Z,10.82
2023-05-28T01:40:18.764Z,9.50
2023-05-28T01:42:47.852Z,9.70
2023-05-28T01:45:16.723Z,9.87
2023-05-28T01:47:44.881Z,11.10
2023-05-28T01:50:13.051Z,12.68
2023-05-28T01:52:41.585Z,11.93
2023-05-28T01:55:12.815Z,12.30
2023-05-28T01:57:41.046Z,10.70
2023-05-28T02:00:10.861Z,9.97
2023-05-28T02:02:38.195Z,11.63
2023-05-28T02:05:07.233Z,11.25
2023-05-28T02:07:34.320Z,12.05
2023-05-28T02:10:01.753Z,10.17
2023-05-28T02:12:29.535Z,10.23
2023-05-28T02:14:57.411Z,10.57
2023-05-28T02:17:24.600Z,10.73
2023-05-28T02:19:51.853Z,10.20
2023-05-28T02:24:47.999Z,13.23
2023-05-28T02:27:16.155Z,12.85
2023-05-28T02:29:44.519Z,13.32
2023-05-28T02:32:11.602Z,11.90
2023-05-28T02:34:39.542Z,11.70
2023-05-28T02:37:07.276Z,11.20
2023-05-28T02:39:35.625Z,11.73
2023-05-28T02:42:03.135Z,11.97
2023-05-28T02:44:30.787Z,12.47
2023-05-28T02:46:58.328Z,11.60
2023-05-28T02:49:25.754Z,11.93
2023-05-28T02:51:52.846Z,12.80
2023-05-28T02:54:19.899Z,12.37
2023-05-28T02:56:47.009Z,12.20
2023-05-28T02:59:14.123Z,12.70
2023-05-28T03:01:41.236Z,11.83
2023-05-28T03:04:08.478Z,11.73
2023-05-28T03:06:37.441Z,12.90
2023-05-28T03:09:05.446Z,12.60
2023-05-28T03:11:33.467Z,12.40
2023-05-28T03:14:00.586Z,12.30
2023-05-28T03:16:27.699Z,13.07
2023-05-28T03:18:54.996Z,12.00
2023-05-28T03:21:22.098Z,12.33
2023-05-28T03:23:49.178Z,11.80
2023-05-28T03:26:16.343Z,12.87
2023-05-28T03:28:44.472Z,13.10
2023-05-28T03:31:14.404Z,12.60
2023-05-28T03:33:41.568Z,13.60
2023-05-28T03:36:09.304Z,13.90
2023-05-28T03:38:36.414Z,14.53
2023-05-28T03:41:03.779Z,14.53
2023-05-28T03:43:32.123Z,13.50
2023-05-28T03:45:59.377Z,13.47
2023-05-28T03:48:26.529Z,13.70
2023-05-28T03:50:53.819Z,14.23
2023-05-28T03:53:22.320Z,13.73
2023-05-28T03:55:49.581Z,13.63
2023-05-28T03:58:17.245Z,12.33
2023-05-28T04:00:46.098Z,12.07
2023-05-28T04:03:14.452Z,11.93
2023-05-28T04:05:42.290Z,12.77
2023-05-28T04:08:09.718Z,11.97
2023-05-28T04:10:36.916Z,11.67
2023-05-28T04:13:04.205Z,12.23
2023-05-28T04:15:31.663Z,11.73
2023-05-28T04:17:58.904Z,11.80
2023-05-28T04:20:26.165Z,12.30
2023-05-28T04:22:53.276Z,13.32
2023-05-28T04:25:21.852Z,11.17
2023-05-28T04:27:49.130Z,13.07
2023-05-28T04:30:16.666Z,12.87
2023-05-28T04:32:45.076Z,13.13
2023-05-28T04:35:13.613Z,12.93
2023-05-28T04:37:41.058Z,12.57
2023-05-28T04:40:12.973Z,12.80
2023-05-28T04:42:41.488Z,13.55
2023-05-28T04:45:09.673Z,14.02
2023-05-28T04:47:37.934Z,14.20
2023-05-28T04:50:07.288Z,14.35
2023-05-28T04:52:36.761Z,13.57
2023-05-28T04:55:07.959Z,13.70
2023-05-28T04:57:35.292Z,13.60
2023-05-28T05:00:02.605Z,12.75
2023-05-28T05:02:30.097Z,12.38
2023-05-28T05:04:58.200Z,12.52
2023-05-28T05:07:25.422Z,12.07
2023-05-28T05:09:52.600Z,12.00
2023-05-28T05:12:19.853Z,12.00
2023-05-28T05:14:46.847Z,11.75
2023-05-28T05:17:14.136Z,12.15
2023-05-28T05:19:41.590Z,12.27
2023-05-28T05:22:09.074Z,12.18
2023-05-28T05:24:36.711Z,12.63
2023-05-28T05:27:03.992Z,11.70
2023-05-28T05:29:31.308Z,11.07
2023-05-28T05:31:59.339Z,12.35
2023-05-28T05:34:26.793Z,12.20
2023-05-28T05:36:53.868Z,11.30
2023-05-28T05:39:21.168Z,11.23
2023-05-28T05:41:48.326Z,11.88
2023-05-28T05:44:15.542Z,11.73
2023-05-28T05:46:42.650Z,11.13
2023-05-28T05:49:10.844Z,10.70
2023-05-28T05:51:38.046Z,11.65
2023-05-28T05:54:05.913Z,12.48
2023-05-28T05:56:33.355Z,11.82
2023-05-28T05:59:00.559Z,10.82
2023-05-28T06:01:27.910Z,10.97
2023-05-28T06:03:54.981Z,11.18
2023-05-28T06:06:22.138Z,10.70
2023-05-28T06:08:49.842Z,11.82
2023-05-28T06:11:17.362Z,11.90
2023-05-28T06:13:45.765Z,11.95
2023-05-28T06:16:13.707Z,12.35
2023-05-28T06:18:41.113Z,12.48
2023-05-28T06:21:09.012Z,12.00
2023-05-28T06:23:37.340Z,12.07
2023-05-28T06:26:04.892Z,11.52
2023-05-28T06:28:32.794Z,11.40
2023-05-28T06:31:00.514Z,11.82
2023-05-28T06:33:27.674Z,11.90
2023-05-28T06:35:55.179Z,11.57
2023-05-28T06:38:22.533Z,11.35
2023-05-28T06:40:50.361Z,10.27
2023-05-28T06:43:17.421Z,10.57
2023-05-28T06:45:44.659Z,10.75
2023-05-28T06:48:11.828Z,10.70
2023-05-28T06:50:38.956Z,10.68
2023-05-28T06:53:06.194Z,10.35
2023-05-28T06:55:33.317Z,10.35
2023-05-28T06:58:00.444Z,9.68
2023-05-28T07:00:27.635Z,9.77
2023-05-28T07:02:54.736Z,9.85
2023-05-28T07:05:21.813Z,9.93
2023-05-28T07:07:48.946Z,9.20
2023-05-28T07:10:16.650Z,9.35
2023-05-28T10:45:20.570Z,6.60
2023-05-28T10:47:55.530Z,5.18
2023-05-28T10:50:22.668Z,4.60
2023-05-28T10:53:07.676Z,4.60
2023-05-28T10:55:55.774Z,5.00
2023-05-28T10:58:38.122Z,5.88
2023-05-28T11:01:11.880Z,5.93
2023-05-28T11:03:48.109Z,6.10
2023-05-28T11:06:15.391Z,6.10
2023-05-28T11:08:46.143Z,5.85
2023-05-28T11:11:17.958Z,5.45
2023-05-28T11:13:49.807Z,5.25
2023-05-28T11:16:19.579Z,5.43
2023-05-28T11:19:10.087Z,10.15
2023-05-28T11:21:55.621Z,7.95
2023-05-28T11:24:25.253Z,5.10
2023-05-28T11:26:55.966Z,5.40
2023-05-28T11:29:23.358Z,7.85
2023-05-28T11:31:50.903Z,5.05
2023-05-28T11:34:21.858Z,5.88
2023-05-28T11:36:51.388Z,5.32
2023-05-28T11:39:18.566Z,5.50
2023-05-28T11:41:48.325Z,4.90
2023-05-28T11:44:26.157Z,4.88
2023-05-28T11:46:57.663Z,4.97
2023-05-28T11:49:25.159Z,4.90
2023-05-28T11:51:54.143Z,4.22
2023-05-28T11:54:33.375Z,4.43
2023-05-28T11:57:07.853Z,4.40
2023-05-28T11:59:35.820Z,5.75
2023-05-28T12:02:17.339Z,8.40
2023-05-28T12:05:02.036Z,4.47
2023-05-28T12:07:35.380Z,4.88
2023-05-28T12:10:10.246Z,3.50
2023-05-28T12:12:46.410Z,3.67
2023-05-28T12:15:16.981Z,4.03
2023-05-28T12:22:46.766Z,3.65
2023-05-28T12:42:53.626Z,4.63
2023-05-28T12:45:21.047Z,4.38
2023-05-28T12:47:49.780Z,4.05
2023-05-28T12:50:17.066Z,3.67
2023-05-28T12:52:44.181Z,3.90
2023-05-28T12:55:15.388Z,4.13
2023-05-28T12:57:47.355Z,3.92
2023-05-28T13:00:16.145Z,4.40
2023-05-28T13:02:46.135Z,4.43
2023-05-28T13:05:14.519Z,3.60
2023-05-28T13:07:44.401Z,4.07
2023-05-28T13:10:15.521Z,3.85
2023-05-28T13:12:42.819Z,4.57
2023-05-28T13:15:10.582Z,4.15
2023-05-28T13:17:37.954Z,4.25
2023-05-28T13:20:11.869Z,4.20
2023-05-28T13:22:39.839Z,3.80
2023-05-28T13:25:10.441Z,3.63
2023-05-28T13:27:37.734Z,3.75
2023-05-28T13:30:05.346Z,4.40
2023-05-28T13:32:32.658Z,3.85
2023-05-28T13:34:59.785Z,4.47
2023-05-28T13:37:27.758Z,4.90
2023-05-28T13:39:56.297Z,3.88
2023-05-28T13:42:26.006Z,4.63
2023-05-28T13:44:55.813Z,4.40
2023-05-28T13:47:25.325Z,4.45
2023-05-28T13:49:57.731Z,4.65
2023-05-28T13:52:25.101Z,4.53
2023-05-28T13:54:52.307Z,4.30
2023-05-28T13:57:21.859Z,4.53
2023-05-28T13:59:51.778Z,3.65
2023-05-28T14:02:19.425Z,4.38
2023-05-28T14:04:47.014Z,4.18
2023-05-28T14:07:14.404Z,4.07
2023-05-28T14:09:44.701Z,4.25
2023-05-28T14:14:42.054Z,4.07
2023-05-28T14:17:11.946Z,4.65
2023-05-28T14:19:39.147Z,4.00
2023-05-28T14:22:08.394Z,4.55
2023-05-28T14:24:35.821Z,4.45
2023-05-28T14:27:04.488Z,4.32
2023-05-28T14:29:31.917Z,4.60
2023-05-28T14:31:59.174Z,4.13
2023-05-28T14:34:27.575Z,4.25
2023-05-28T14:37:04.223Z,4.68
2023-05-28T14:39:31.450Z,4.63
2023-05-28T14:41:59.759Z,4.60
2023-05-28T14:44:26.975Z,5.03
2023-05-28T14:46:55.351Z,5.07
2023-05-28T14:49:22.608Z,4.75
2023-05-28T14:51:55.101Z,4.68
2023-05-28T14:54:22.324Z,4.38
2023-05-28T14:56:49.497Z,4.93
2023-05-28T14:59:17.049Z,4.95
2023-05-28T15:01:44.223Z,4.85
2023-05-28T15:04:13.814Z,4.55
2023-05-28T15:06:41.205Z,4.50
2023-05-28T15:09:08.359Z,4.88
2023-05-28T15:11:36.651Z,4.30
2023-05-28T15:14:03.737Z,4.85
2023-05-28T15:16:33.389Z,5.38
2023-05-28T15:19:03.744Z,5.30
2023-05-28T15:21:33.474Z,5.03
2023-05-28T15:24:03.101Z,4.70
2023-05-28T15:26:31.188Z,4.50
2023-05-28T15:28:58.949Z,5.13
2023-05-28T15:31:27.553Z,4.97
2023-05-28T15:33:54.900Z,5.13
2023-05-28T15:36:22.551Z,5.55
2023-05-28T15:38:52.725Z,4.60
2023-05-28T15:41:21.380Z,5.03
2023-05-28T15:43:52.303Z,4.60
2023-05-28T15:46:20.552Z,5.05
2023-05-28T15:48:48.085Z,5.13
2023-05-28T15:51:15.323Z,4.63
2023-05-28T15:53:42.636Z,5.40
2023-05-28T15:56:09.987Z,4.88
2023-05-28T15:58:40.908Z,4.95
2023-05-28T16:01:09.578Z,4.93
2023-05-28T16:03:41.921Z,5.43
2023-05-28T16:06:12.162Z,6.22
2023-05-28T16:08:39.555Z,4.78
2023-05-28T16:11:14.339Z,5.18
2023-05-28T16:13:43.185Z,4.72
2023-05-28T16:16:17.096Z,4.97
2023-05-28T16:18:44.667Z,4.70
2023-05-28T16:21:14.711Z,5.28
2023-05-28T16:23:42.029Z,5.30
2023-05-28T16:26:09.811Z,4.97
2023-05-28T16:28:38.318Z,4.60
2023-05-28T16:31:08.284Z,5.25
2023-05-28T16:33:35.971Z,5.28
2023-05-28T16:36:04.243Z,5.05
2023-05-28T16:38:31.590Z,6.78
2023-05-28T16:41:01.244Z,5.65
2023-05-28T16:43:28.702Z,5.40
2023-05-28T16:46:04.658Z,5.00
2023-05-28T16:48:32.275Z,4.78
2023-05-28T16:51:01.070Z,6.25
2023-05-28T16:53:30.580Z,4.90
2023-05-28T16:55:58.095Z,5.00
2023-05-28T16:58:27.024Z,5.13
2023-05-28T17:00:56.022Z,4.93
2023-05-28T17:03:25.763Z,4.30
2023-05-28T17:05:53.196Z,4.22
2023-05-28T17:08:21.721Z,3.78
2023-05-28T17:10:50.978Z,4.22
2023-05-28T17:13:20.545Z,3.55
2023-05-28T17:15:50.195Z,3.90
2023-05-28T17:18:17.860Z,3.85
2023-05-28T17:20:45.323Z,3.95
2023-05-28T17:23:12.562Z,3.90
2023-05-28T17:25:40.322Z,3.92
2023-05-28T17:28:07.334Z,4.30
2023-05-28T20:25:14.152Z,3.55
2023-05-28T20:27:41.249Z,3.10
2023-05-28T20:30:08.988Z,3.60
2023-05-28T20:32:36.484Z,3.75
2023-05-28T20:35:03.874Z,3.70
2023-05-28T20:37:30.893Z,3.58
2023-05-28T20:39:58.514Z,4.00
2023-05-28T20:42:25.638Z,3.80
2023-05-28T20:44:53.552Z,3.72
2023-05-28T20:47:20.772Z,4.00
2023-05-28T20:49:47.878Z,4.00
2023-05-28T20:52:16.215Z,3.77
2023-05-28T20:54:44.803Z,3.65
2023-05-28T20:57:14.115Z,3.50
2023-05-28T20:59:41.359Z,3.95
2023-05-28T21:02:11.597Z,3.73
2023-05-28T21:04:38.998Z,2.93
2023-05-28T21:07:09.055Z,3.60
2023-05-28T21:09:38.781Z,3.40
2023-05-28T21:12:06.985Z,3.70
2023-05-28T21:14:34.378Z,3.53
2023-05-28T21:17:03.634Z,3.70
2023-05-28T21:19:31.292Z,3.57
2023-05-28T21:21:58.951Z,3.53
2023-05-28T21:24:26.287Z,3.57
2023-05-28T21:26:56.350Z,3.70
2023-05-28T21:29:23.467Z,3.67
2023-05-28T21:31:50.801Z,3.70
2023-05-28T21:34:18.006Z,3.90
2023-05-28T21:36:45.072Z,3.83
2023-05-28T21:39:12.187Z,3.93
2023-05-28T21:41:39.590Z,4.20
2023-05-28T21:44:06.647Z,3.87
2023-05-28T21:46:33.830Z,4.40
2023-05-28T21:49:01.249Z,3.87
2023-05-28T21:51:28.484Z,4.47
2023-05-28T21:53:55.696Z,3.70
2023-05-28T21:56:23.031Z,4.17
2023-05-28T21:58:51.682Z,4.30
2023-05-28T22:06:14.167Z,4.05
2023-05-28T22:08:41.768Z,3.43
2023-05-28T22:11:09.580Z,3.07
2023-05-28T22:13:36.752Z,3.03
2023-05-28T22:16:04.230Z,2.90
2023-05-28T22:18:31.849Z,3.10
2023-05-28T22:20:59.087Z,3.30
2023-05-28T22:23:26.231Z,3.27
2023-05-28T22:25:54.013Z,3.83
2023-05-28T22:28:22.274Z,3.90
2023-05-28T22:30:49.530Z,3.57
2023-05-28T22:33:18.566Z,3.13
2023-05-28T22:35:45.840Z,3.67
2023-05-28T22:38:12.905Z,3.70
2023-05-28T22:40:40.121Z,3.47
2023-05-28T22:43:07.522Z,3.57
2023-05-28T22:45:34.660Z,4.37
2023-05-28T22:48:05.802Z,3.07
2023-05-28T22:50:33.167Z,3.23
2023-05-28T22:53:01.104Z,3.40
2023-05-28T22:55:29.218Z,3.60
2023-05-28T23:02:52.089Z,2.87
2023-05-28T23:05:20.199Z,3.50
2023-05-28T23:07:47.989Z,3.30
2023-05-28T23:10:15.646Z,3.70
2023-05-28T23:12:46.181Z,3.60
2023-05-28T23:15:13.448Z,3.60
2023-05-28T23:17:40.521Z,3.77
2023-05-28T23:22:42.694Z,3.90
2023-05-28T23:25:10.812Z,4.17
2023-05-28T23:27:38.288Z,4.53
2023-05-28T23:30:06.817Z,4.57
2023-05-28T23:32:34.674Z,4.03
2023-05-28T23:35:05.500Z,3.83
2023-05-28T23:37:33.470Z,4.03
2023-05-28T23:40:01.035Z,4.27
2023-05-28T23:42:30.480Z,4.03
2023-05-28T23:44:58.282Z,4.80
2023-05-28T23:47:25.568Z,4.07
2023-05-28T23:49:54.944Z,3.53
2023-05-28T23:52:22.083Z,4.17
2023-05-28T23:54:49.378Z,3.80
2023-05-28T23:57:16.399Z,4.73
2023-05-28T23:59:43.548Z,4.40
